Time;durP1;ratioP1;P1;durP2;ratioP2;P2;SDS_P1;SDS_P2;PMS_P1;PMS_P2;Temp;Humidity;BMP_temperature;BMP_pressure;BME280_temperature;BME280_humidity;BME280_pressure;Samples;Min_cycle;Max_cycle;Signal;HPM_P1;HPM_P2
2023/04/28 00:00:10;;;;;;;6.85;3.97;;;6.70;99.90;;;;;;7394899;19;19922;-75
2023/04/28 00:02:39;;;;;;;8.80;4.30;;;6.70;99.90;;;;;;7400109;19;19922;-76
2023/04/28 00:05:09;;;;;;;7.90;3.97;;;8.10;99.90;;;;;;7400493;19;20316;-76
2023/04/28 00:07:38;;;;;;;8.45;4.57;;;6.60;99.90;;;;;;7400306;19;19924;-76
2023/04/28 00:10:11;;;;;;;6.78;4.38;;;7.00;99.90;;;;;;7397761;19;19918;-76
2023/04/28 00:12:40;;;;;;;6.68;3.97;;;6.50;99.90;;;;;;7399633;19;19946;-76
2023/04/28 00:15:10;;;;;;;6.13;4.15;;;6.60;99.90;;;;;;7398516;19;19910;-76
2023/04/28 00:17:39;;;;;;;5.85;3.95;;;6.60;99.90;;;;;;7400121;19;19919;-76
2023/04/28 00:20:09;;;;;;;7.68;4.35;;;6.50;99.90;;;;;;7399881;19;19923;-76
2023/04/28 00:22:38;;;;;;;7.57;4.30;;;6.60;99.90;;;;;;7398505;19;19982;-75
2023/04/28 00:25:11;;;;;;;6.47;4.28;;;6.40;99.90;;;;;;7399873;19;19925;-75
2023/04/28 00:27:40;;;;;;;5.30;3.45;;;6.50;99.90;;;;;;7400054;19;20395;-76
2023/04/28 00:30:10;;;;;;;7.22;4.25;;;6.60;99.90;;;;;;7399330;19;19942;-76
2023/04/28 00:32:39;;;;;;;6.47;4.10;;;6.30;99.90;;;;;;7397466;19;20253;-76
2023/04/28 00:35:08;;;;;;;9.13;3.92;;;6.50;99.90;;;;;;7397189;19;20344;-75
2023/04/28 00:37:38;;;;;;;7.30;4.30;;;6.40;99.90;;;;;;7399194;19;19919;-76
2023/04/28 00:40:11;;;;;;;7.53;4.05;;;6.50;99.90;;;;;;7397351;19;19929;-76
2023/04/28 00:42:40;;;;;;;6.88;4.15;;;6.30;99.90;;;;;;7399699;19;19925;-76
2023/04/28 00:45:11;;;;;;;8.65;4.22;;;6.40;99.90;;;;;;7397899;19;19929;-76
2023/04/28 00:47:39;;;;;;;7.88;4.20;;;6.40;99.90;;;;;;7398189;19;19919;-76
2023/04/28 00:50:09;;;;;;;7.43;4.10;;;6.40;99.90;;;;;;7398853;19;20441;-76
2023/04/28 00:52:40;;;;;;;7.25;4.55;;;6.30;99.90;;;;;;7399662;19;20259;-75
2023/04/28 00:55:12;;;;;;;5.93;3.75;;;7.10;99.90;;;;;;7397903;19;19915;-76
2023/04/28 00:57:40;;;;;;;;;;;6.30;99.90;;;;;;7399933;19;19930;-75
2023/04/28 01:00:10;;;;;;;7.57;4.05;;;6.40;99.90;;;;;;7395971;19;19930;-77
2023/04/28 01:02:39;;;;;;;6.32;4.15;;;6.20;99.90;;;;;;7399839;19;19927;-76
2023/04/28 01:05:10;;;;;;;7.45;4.53;;;6.30;99.90;;;;;;7397552;19;19930;-76
2023/04/28 01:07:39;;;;;;;9.25;4.10;;;6.30;99.90;;;;;;7399000;19;20347;-76
2023/04/28 01:10:12;;;;;;;7.72;4.10;;;6.60;99.90;;;;;;7397395;19;19919;-76
2023/04/28 01:12:41;;;;;;;6.95;4.15;;;6.30;99.90;;;;;;7403624;19;20347;-76
2023/04/28 01:15:20;;;;;;;10.25;5.40;;;7.00;99.90;;;;;;7404467;19;19915;-76
2023/04/28 01:17:50;;;;;;;7.30;4.00;;;6.20;99.90;;;;;;7405173;19;19926;-76
2023/04/28 01:20:18;;;;;;;8.98;4.20;;;6.30;99.90;;;;;;7403325;19;19930;-76
2023/04/28 01:22:47;;;;;;;7.25;3.97;;;6.30;99.90;;;;;;7403691;19;19945;-76
2023/04/28 01:25:19;;;;;;;7.32;4.72;;;6.90;99.90;;;;;;7405560;19;19929;-76
2023/04/28 01:27:48;;;;;;;6.53;4.18;;;6.20;99.90;;;;;;7401032;19;19919;-76
2023/04/28 01:30:17;;;;;;;7.72;4.45;;;6.30;99.90;;;;;;7404203;19;19926;-76
2023/04/28 01:32:45;;;;;;;10.85;4.80;;;6.20;99.90;;;;;;7406033;19;20303;-76
2023/04/28 01:35:14;;;;;;;8.85;4.85;;;7.10;99.90;;;;;;7404541;19;19958;-76
2023/04/28 01:37:43;;;;;;;7.20;4.47;;;6.20;99.90;;;;;;7403654;19;19923;-75
2023/04/28 01:40:13;;;;;;;7.18;5.22;;;6.30;99.90;;;;;;7402670;19;19918;-76
2023/04/28 01:42:45;;;;;;;9.60;5.78;;;6.20;99.90;;;;;;7402318;19;19922;-76
2023/04/28 01:45:14;;;;;;;10.02;5.22;;;6.70;99.90;;;;;;7403778;19;20364;-75
2023/04/28 01:47:43;;;;;;;13.43;5.53;;;6.10;99.90;;;;;;7402340;19;19926;-75
2023/04/28 01:50:13;;;;;;;9.80;5.38;;;6.30;99.90;;;;;;7404412;19;19938;-76
2023/04/28 01:52:41;;;;;;;10.45;5.63;;;6.30;99.90;;;;;;7403140;19;19914;-76
2023/04/28 01:55:11;;;;;;;10.45;5.85;;;6.20;99.90;;;;;;7403954;19;19925;-76
2023/04/28 01:57:40;;;;;;;8.52;5.07;;;6.20;99.90;;;;;;7403607;19;19957;-76
2023/04/28 02:00:12;;;;;;;9.55;5.75;;;6.60;99.90;;;;;;7403115;19;19970;-76
2023/04/28 02:02:41;;;;;;;10.63;6.07;;;6.30;99.90;;;;;;7403128;19;19930;-76
2023/04/28 02:05:10;;;;;;;10.85;5.45;;;7.10;99.90;;;;;;7402305;19;19934;-76
2023/04/28 02:07:40;;;;;;;9.52;5.53;;;6.20;99.90;;;;;;7404019;19;20270;-75
2023/04/28 02:10:09;;;;;;;11.45;5.90;;;6.20;99.90;;;;;;7402831;19;19942;-75
2023/04/28 02:12:40;;;;;;;11.65;6.07;;;6.10;99.90;;;;;;7402315;19;19926;-75
2023/04/28 02:15:12;;;;;;;10.75;6.00;;;6.20;99.90;;;;;;7402747;19;19930;-76
2023/04/28 02:17:41;;;;;;;13.05;5.97;;;6.00;99.90;;;;;;7401392;19;19926;-76
2023/04/28 02:20:13;;;;;;;13.60;6.38;;;7.10;99.90;;;;;;7403250;19;19922;-76
2023/04/28 02:22:42;;;;;;;9.98;6.28;;;6.10;99.90;;;;;;7401333;19;19949;-75
2023/04/28 02:25:11;;;;;;;9.40;6.40;;;6.20;99.90;;;;;;7401290;19;19930;-75
2023/04/28 02:27:40;;;;;;;12.00;6.13;;;6.20;99.90;;;;;;7402545;19;19951;-75
2023/04/28 02:30:12;;;;;;;13.50;7.18;;;6.10;99.90;;;;;;7403819;19;19918;-75
2023/04/28 02:32:41;;;;;;;13.30;7.18;;;6.10;99.90;;;;;;7402027;19;19930;-76
2023/04/28 02:35:10;;;;;;;14.52;6.80;;;6.20;99.90;;;;;;7403705;19;20520;-76
2023/04/28 02:37:39;;;;;;;15.05;7.07;;;6.10;99.90;;;;;;7401856;19;19945;-74
2023/04/28 02:40:10;;;;;;;11.80;7.03;;;7.20;99.90;;;;;;7402898;19;19919;-75
2023/04/28 02:42:38;;;;;;;11.73;6.68;;;6.10;99.90;;;;;;7402895;19;19926;-76
2023/04/28 02:45:11;;;;;;;12.13;7.15;;;6.30;99.90;;;;;;7401951;19;20378;-76
2023/04/28 02:47:41;;;;;;;15.25;8.02;;;6.10;99.90;;;;;;7400218;19;20261;-75
2023/04/28 02:50:11;;;;;;;14.35;7.03;;;6.00;99.90;;;;;;7401854;19;19945;-76
2023/04/28 02:52:40;;;;;;;13.13;7.25;;;6.20;99.90;;;;;;7401008;19;19922;-75
2023/04/28 02:55:10;;;;;;;16.48;7.68;;;6.40;99.90;;;;;;7401307;19;19926;-75
2023/04/28 02:57:39;;;;;;;14.00;7.55;;;6.20;99.90;;;;;;7402359;19;19925;-76
2023/04/28 03:00:12;;;;;;;15.90;7.28;;;6.20;99.90;;;;;;7401245;19;19930;-76
2023/04/28 03:02:41;;;;;;;11.82;6.78;;;6.20;99.90;;;;;;7403452;19;19922;-76
2023/04/28 03:05:11;;;;;;;15.07;8.48;;;7.00;99.90;;;;;;7401544;19;20370;-75
2023/04/28 03:07:40;;;;;;;19.33;8.70;;;6.10;99.90;;;;;;7401043;19;19918;-76
2023/04/28 03:10:10;;;;;;;14.25;7.80;;;6.20;99.90;;;;;;7402632;19;20629;-75
2023/04/28 03:12:40;;;;;;;14.50;7.80;;;6.10;99.90;;;;;;7400483;19;19927;-75
2023/04/28 03:15:12;;;;;;;16.92;8.07;;;6.10;99.90;;;;;;7402074;19;19923;-76
2023/04/28 03:17:41;;;;;;;17.77;8.23;;;6.10;99.90;;;;;;7400456;19;20340;-76
2023/04/28 03:20:12;;;;;;;16.85;8.60;;;6.60;99.90;;;;;;7400917;19;19953;-76
2023/04/28 03:22:41;;;;;;;17.88;8.43;;;6.20;99.90;;;;;;7401661;19;19922;-75
2023/04/28 03:25:10;;;;;;;18.65;8.45;;;6.00;99.90;;;;;;7400591;19;19922;-76
2023/04/28 03:27:39;;;;;;;15.00;7.93;;;6.00;99.90;;;;;;7400176;19;19922;-76
2023/04/28 03:30:12;;;;;;;16.48;9.13;;;6.30;99.90;;;;;;7400887;19;19918;-76
2023/04/28 03:32:41;;;;;;;15.65;8.15;;;6.10;99.90;;;;;;7399726;19;19927;-76
2023/04/28 03:35:11;;;;;;;16.77;8.77;;;6.50;99.90;;;;;;7397149;19;19918;-76
2023/04/28 03:37:40;;;;;;;19.65;7.88;;;6.10;99.90;;;;;;7400756;19;19926;-76
2023/04/28 03:40:10;;;;;;;13.73;7.28;;;6.20;99.90;;;;;;7400699;19;20381;-76
2023/04/28 03:42:39;;;;;;;13.80;7.53;;;6.00;99.90;;;;;;7399839;19;20356;-77
2023/04/28 03:45:09;;;;;;;16.35;8.25;;;7.20;99.90;;;;;;7401446;19;19934;-76
2023/04/28 03:47:41;;;;;;;13.40;6.88;;;6.10;99.90;;;;;;7402020;19;19918;-76
2023/04/28 03:50:11;;;;;;;11.15;6.53;;;7.70;99.90;;;;;;7401528;19;19925;-76
2023/04/28 03:52:40;;;;;;;13.40;7.32;;;6.10;99.90;;;;;;7397370;19;19922;-76
2023/04/28 03:55:10;;;;;;;15.88;6.95;;;6.20;99.90;;;;;;7398500;19;20283;-76
2023/04/28 03:57:38;;;;;;;13.38;7.63;;;6.00;99.90;;;;;;7400509;19;19923;-77
2023/04/28 04:00:11;;;;;;;14.52;6.60;;;7.10;99.90;;;;;;7398445;19;19918;-78
2023/04/28 04:02:43;;;;;;;11.45;6.50;;;6.00;99.90;;;;;;7401200;19;19926;-77
2023/04/28 04:05:12;;;;;;;15.65;7.55;;;5.90;99.90;;;;;;7398707;19;19924;-76
2023/04/28 04:07:41;;;;;;;12.23;6.75;;;6.00;99.90;;;;;;7400707;19;19937;-77
2023/04/28 04:10:11;;;;;;;11.27;6.60;;;6.00;99.90;;;;;;7400136;19;19962;-76
2023/04/28 04:12:40;;;;;;;12.27;6.93;;;5.90;99.90;;;;;;7399476;19;19929;-76
2023/04/28 04:15:10;;;;;;;14.23;6.78;;;6.00;99.90;;;;;;7398284;19;19919;-76
2023/04/28 04:17:40;;;;;;;13.73;6.82;;;5.90;99.90;;;;;;7398197;19;20003;-76
2023/04/28 04:20:12;;;;;;;12.45;6.22;;;6.30;99.90;;;;;;7399785;19;19915;-76
2023/04/28 04:22:41;;;;;;;12.02;7.07;;;5.90;99.90;;;;;;7399440;19;19926;-76
2023/04/28 04:25:10;;;;;;;13.88;6.72;;;5.90;99.90;;;;;;7399752;19;19922;-76
2023/04/28 04:27:39;;;;;;;13.00;7.18;;;5.90;99.90;;;;;;7401118;19;20299;-76
2023/04/28 04:30:10;;;;;;;11.60;6.35;;;6.10;99.90;;;;;;7399593;19;19962;-75
2023/04/28 04:32:39;;;;;;;14.00;7.22;;;5.90;99.90;;;;;;7397841;19;20339;-76
2023/04/28 04:35:11;;;;;;;11.98;6.03;;;6.10;99.90;;;;;;7399887;19;19926;-76
2023/04/28 04:37:40;;;;;;;;;;;5.80;99.90;;;;;;7402604;19;19939;-76
2023/04/28 04:40:10;;;;;;;10.80;6.53;;;5.90;99.90;;;;;;7398132;19;20266;-76
2023/04/28 04:42:39;;;;;;;14.02;6.60;;;6.00;99.90;;;;;;7397857;19;19929;-76
2023/04/28 04:45:09;;;;;;;13.02;6.35;;;6.10;99.90;;;;;;7398376;19;20347;-76
2023/04/28 04:47:38;;;;;;;10.38;5.78;;;5.80;99.90;;;;;;7404517;19;19922;-76
2023/04/28 04:50:13;;;;;;;13.40;6.18;;;6.00;99.90;;;;;;7405812;19;19923;-76
2023/04/28 04:52:43;;;;;;;10.57;5.70;;;5.90;99.90;;;;;;7405029;19;19970;-75
2023/04/28 04:55:12;;;;;;;12.05;6.63;;;6.60;99.90;;;;;;7403340;19;19922;-75
2023/04/28 04:57:41;;;;;;;13.63;6.00;;;6.10;99.90;;;;;;7405068;19;19918;-75
2023/04/28 05:00:12;;;;;;;12.57;6.15;;;6.20;99.90;;;;;;7401299;19;19922;-75
2023/04/28 05:02:41;;;;;;;14.45;7.18;;;6.00;99.90;;;;;;7404370;19;20253;-76
2023/04/28 05:05:13;;;;;;;12.40;6.82;;;6.10;99.90;;;;;;7403483;19;19929;-75
2023/04/28 05:07:41;;;;;;;10.30;5.75;;;6.20;99.90;;;;;;7403059;19;20248;-75
2023/04/28 05:10:12;;;;;;;10.95;6.30;;;6.10;99.90;;;;;;7404303;19;19926;-75
2023/04/28 05:12:41;;;;;;;10.00;6.00;;;6.20;99.90;;;;;;7401995;19;19926;-75
2023/04/28 05:15:10;;;;;;;11.30;6.32;;;6.20;99.90;;;;;;7405895;19;19926;-76
2023/04/28 05:17:39;;;;;;;10.43;6.00;;;6.20;99.90;;;;;;7401503;19;19922;-75
2023/04/28 05:20:12;;;;;;;12.52;5.95;;;7.10;99.90;;;;;;7406446;19;19922;-75
2023/04/28 05:22:41;;;;;;;10.95;6.53;;;6.10;99.90;;;;;;7405941;19;19926;-75
2023/04/28 05:25:11;;;;;;;10.50;5.85;;;6.30;99.90;;;;;;7404937;19;19919;-75
2023/04/28 05:27:40;;;;;;;9.55;5.88;;;6.20;99.90;;;;;;7403187;19;20333;-76
2023/04/28 05:30:10;;;;;;;10.07;5.63;;;6.20;99.90;;;;;;7404238;19;19922;-75
2023/04/28 05:32:39;;;;;;;11.73;6.03;;;6.30;99.90;;;;;;7398676;19;19926;-75
2023/04/28 05:35:09;;;;;;;11.75;6.25;;;7.20;99.90;;;;;;7405374;19;19922;-75
2023/04/28 05:37:42;;;;;;;9.90;6.18;;;6.20;99.90;;;;;;7400226;19;19918;-76
2023/04/28 05:40:12;;;;;;;12.98;5.65;;;6.30;99.90;;;;;;7404057;19;19919;-75
2023/04/28 05:42:41;;;;;;;7.97;5.68;;;6.30;99.90;;;;;;7403447;19;19981;-75
2023/04/28 05:45:12;;;;;;;13.60;6.20;;;6.30;99.90;;;;;;7401407;19;19927;-76
2023/04/28 05:47:41;;;;;;;8.75;6.05;;;6.20;99.90;;;;;;7401140;19;19947;-75
2023/04/28 05:50:11;;;;;;;11.52;5.63;;;6.50;99.90;;;;;;7404997;19;19927;-75
2023/04/28 05:52:43;;;;;;;12.65;5.78;;;6.30;99.90;;;;;;7402274;19;19930;-75
2023/04/28 05:55:12;;;;;;;9.90;5.85;;;7.30;99.90;;;;;;7404277;19;19935;-75
2023/04/28 05:57:41;;;;;;;11.60;5.47;;;6.60;99.90;;;;;;7400866;19;19922;-76
2023/04/28 06:00:11;;;;;;;12.60;5.25;;;6.40;99.90;;;;;;7402125;19;20078;-76
2023/04/28 06:02:40;;;;;;;10.55;5.95;;;6.60;99.90;;;;;;7403894;19;20335;-76
2023/04/28 06:05:10;;;;;;;11.30;5.72;;;7.40;99.90;;;;;;7403314;19;20332;-75
2023/04/28 06:07:42;;;;;;;9.90;6.10;;;6.50;99.90;;;;;;7402928;19;20009;-75
2023/04/28 06:10:12;;;;;;;9.80;6.22;;;6.60;99.90;;;;;;7402742;19;19982;-75
2023/04/28 06:12:41;;;;;;;10.55;5.70;;;6.50;99.90;;;;;;7401862;19;19922;-76
2023/04/28 06:15:10;;;;;;;11.98;5.63;;;6.60;99.90;;;;;;7404001;19;20272;-76
2023/04/28 06:17:41;;;;;;;10.90;5.18;;;6.50;99.90;;;;;;7403185;19;19922;-77
2023/04/28 06:20:12;;;;;;;10.55;6.13;;;6.60;99.90;;;;;;7401680;19;19945;-75
2023/04/28 06:22:44;;;;;;;10.43;5.90;;;6.70;99.90;;;;;;7402438;19;20067;-75
2023/04/28 06:25:13;;;;;;;11.25;5.85;;;6.80;99.90;;;;;;7404117;19;20660;-76
2023/04/28 06:27:41;;;;;;;9.18;5.55;;;6.80;99.90;;;;;;7403018;19;19987;-75
2023/04/28 06:30:11;;;;;;;9.35;5.32;;;6.70;99.90;;;;;;7399384;19;19918;-76
2023/04/28 06:32:40;;;;;;;12.98;6.10;;;6.80;99.90;;;;;;7402149;19;20348;-75
2023/04/28 06:35:09;;;;;;;10.55;5.65;;;6.90;99.90;;;;;;7401259;19;19943;-76
2023/04/28 06:37:38;;;;;;;8.73;5.13;;;6.80;99.90;;;;;;7401910;19;19926;-76
2023/04/28 06:40:11;;;;;;;12.05;6.10;;;7.00;99.90;;;;;;7402685;19;19923;-77
2023/04/28 06:42:40;;;;;;;10.95;5.70;;;7.00;99.90;;;;;;7402472;19;19929;-76
2023/04/28 06:45:10;;;;;;;9.07;5.70;;;7.00;99.90;;;;;;7403085;19;20261;-76
2023/04/28 06:47:39;;;;;;;10.40;5.78;;;7.00;99.90;;;;;;7402102;19;19918;-76
2023/04/28 06:50:09;;;;;;;10.18;5.78;;;7.20;99.90;;;;;;7401536;19;19919;-76
2023/04/28 06:52:39;;;;;;;10.60;5.93;;;7.20;99.90;;;;;;7401667;19;20296;-75
2023/04/28 06:55:11;;;;;;;8.85;5.53;;;8.20;99.90;;;;;;7400807;19;19923;-75
2023/04/28 06:57:41;;;;;;;10.93;5.63;;;7.20;99.90;;;;;;7401893;19;20407;-75
2023/04/28 07:00:11;;;;;;;11.00;5.78;;;7.30;99.90;;;;;;7401236;19;20656;-75
2023/04/28 07:02:40;;;;;;;9.88;5.47;;;7.40;99.90;;;;;;7400989;19;20036;-75
2023/04/28 07:05:10;;;;;;;10.23;5.05;;;7.30;99.90;;;;;;7402162;19;20458;-74
2023/04/28 07:07:40;;;;;;;12.25;6.00;;;7.30;99.90;;;;;;7400469;19;19945;-74
2023/04/28 07:10:14;;;;;;;8.82;5.90;;;7.50;99.90;;;;;;7400748;19;19930;-75
2023/04/28 07:12:43;;;;;;;8.98;5.40;;;7.40;99.90;;;;;;7402252;19;19926;-75
2023/04/28 07:15:13;;;;;;;9.23;5.93;;;7.40;99.90;;;;;;7401625;19;20037;-75
2023/04/28 07:17:42;;;;;;;11.75;5.93;;;7.40;99.90;;;;;;7401306;19;19932;-75
2023/04/28 07:20:11;;;;;;;7.63;5.60;;;7.50;99.90;;;;;;7401229;19;19926;-75
2023/04/28 07:22:40;;;;;;;12.75;5.93;;;7.50;99.90;;;;;;7402182;19;19922;-75
2023/04/28 07:25:12;;;;;;;10.65;6.18;;;7.60;99.90;;;;;;7401101;19;19926;-75
2023/04/28 07:27:41;;;;;;;;;;;7.50;99.90;;;;;;7402692;19;19914;-75
2023/04/28 07:30:12;;;;;;;8.07;4.97;;;7.60;99.90;;;;;;7402111;19;19978;-75
2023/04/28 07:32:41;;;;;;;8.40;5.40;;;7.50;99.90;;;;;;7402371;19;20375;-75
2023/04/28 07:35:11;;;;;;;11.27;5.65;;;7.60;99.90;;;;;;7401528;19;20619;-75
2023/04/28 07:37:39;;;;;;;9.93;5.65;;;7.60;99.90;;;;;;7401180;19;20679;-75
2023/04/28 07:40:12;;;;;;;10.52;5.63;;;7.60;99.90;;;;;;7400606;19;19941;-75
2023/04/28 07:42:41;;;;;;;11.95;5.75;;;7.60;99.90;;;;;;7399979;19;19925;-75
2023/04/28 07:45:11;;;;;;;9.88;5.50;;;7.70;99.90;;;;;;7400830;19;20618;-75
2023/04/28 07:47:40;;;;;;;10.93;5.30;;;7.80;99.90;;;;;;7400436;19;19928;-75
2023/04/28 07:50:10;;;;;;;11.10;6.10;;;7.80;99.90;;;;;;7398326;19;19922;-76
2023/04/28 07:52:39;;;;;;;9.88;6.00;;;7.80;99.90;;;;;;7400234;19;20382;-74
2023/04/28 07:55:09;;;;;;;9.15;4.82;;;7.90;99.90;;;;;;7399472;19;20360;-75
2023/04/28 07:57:41;;;;;;;9.20;5.03;;;7.80;99.90;;;;;;7395121;19;19926;-79
2023/04/28 08:00:11;;;;;;;9.38;5.43;;;7.70;99.90;;;;;;7394780;19;20291;-81
2023/04/28 08:02:40;;;;;;;14.43;5.57;;;8.00;99.90;;;;;;7403892;19;20023;-81
2023/04/28 08:05:10;;;;;;;10.63;5.60;;;8.10;99.90;;;;;;7400278;19;19918;-82
2023/04/28 08:07:39;;;;;;;7.97;5.07;;;8.10;99.90;;;;;;7401717;19;19918;-81
2023/04/28 08:10:10;;;;;;;10.15;5.05;;;8.10;99.90;;;;;;7399012;19;19934;-78
2023/04/28 08:12:44;;;;;;;10.18;5.15;;;8.20;99.90;;;;;;7402239;19;20267;-84
2023/04/28 08:15:13;;;;;;;8.10;5.18;;;8.20;99.90;;;;;;7401440;19;19918;-84
2023/04/28 08:17:42;;;;;;;8.02;5.30;;;8.40;99.90;;;;;;7401843;19;19932;-83
2023/04/28 08:20:14;;;;;;;9.05;5.18;;;8.30;99.90;;;;;;7401554;19;19923;-83
2023/04/28 08:22:43;;;;;;;10.18;5.30;;;8.20;99.90;;;;;;7404173;19;20285;-78
2023/04/28 08:25:12;;;;;;;8.40;4.97;;;8.40;99.90;;;;;;7406029;19;19926;-79
2023/04/28 08:27:44;;;;;;;10.18;5.22;;;8.30;99.90;;;;;;7407404;19;19918;-80
2023/04/28 08:30:13;;;;;;;7.30;5.22;;;8.50;99.90;;;;;;7405215;19;19922;-76
2023/04/28 08:32:42;;;;;;;11.13;4.65;;;8.40;99.90;;;;;;7405821;19;19933;-76
2023/04/28 08:35:11;;;;;;;9.07;5.20;;;8.60;99.90;;;;;;7406450;19;20360;-76
2023/04/28 08:37:40;;;;;;;8.75;5.38;;;8.60;99.90;;;;;;7408407;19;20355;-76
2023/04/28 08:40:10;;;;;;;9.60;5.43;;;8.60;99.90;;;;;;7406394;19;20300;-76
2023/04/28 08:42:44;;;;;;;8.50;5.20;;;8.70;99.90;;;;;;7404097;19;19934;-76
2023/04/28 08:45:16;;;;;;;9.95;5.00;;;8.70;99.90;;;;;;7403873;19;19929;-77
2023/04/28 08:47:48;;;;;;;9.88;5.38;;;8.70;99.90;;;;;;7404265;19;19926;-77
2023/04/28 08:50:22;;;;;;;10.30;5.68;;;8.80;99.90;;;;;;7403474;19;19949;-77
2023/04/28 08:52:54;;;;;;;6.80;4.80;;;8.80;99.90;;;;;;7402989;19;19937;-76
2023/04/28 08:55:23;;;;;;;;;;;8.90;99.90;;;;;;7406834;19;19927;-76
2023/04/28 08:57:56;;;;;;;11.07;5.90;;;8.80;99.90;;;;;;7403318;19;19937;-78
2023/04/28 09:00:26;;;;;;;8.32;5.57;;;9.00;99.90;;;;;;7401246;19;19941;-77
2023/04/28 09:02:55;;;;;;;9.55;5.05;;;9.00;99.90;;;;;;7404550;19;19927;-76
2023/04/28 09:05:24;;;;;;;9.38;4.93;;;9.00;99.90;;;;;;7404001;19;19919;-79
2023/04/28 09:07:54;;;;;;;13.73;6.18;;;9.00;99.90;;;;;;7404297;19;20271;-78
2023/04/28 09:10:26;;;;;;;8.07;5.80;;;9.10;99.90;;;;;;7402101;19;19914;-78
2023/04/28 09:12:58;;;;;;;10.25;5.50;;;9.10;99.90;;;;;;7403834;19;19945;-83
2023/04/28 09:15:34;;;;;;;8.18;5.18;;;9.20;99.90;;;;;;7406596;19;19925;-83
2023/04/28 09:18:05;;;;;;;9.25;5.10;;;9.10;99.90;;;;;;7405247;19;19922;-83
2023/04/28 09:20:35;;;;;;;10.60;5.53;;;9.20;99.90;;;;;;7407505;19;19966;-80
2023/04/28 09:23:17;;;;;;;9.93;5.03;;;9.20;99.90;;;;;;7407881;19;19922;-83
2023/04/28 09:26:01;;;;;;;7.80;5.22;;;9.20;99.90;;;;;;7407577;19;19986;-83
2023/04/28 09:28:33;;;;;;;10.68;5.65;;;9.20;99.90;;;;;;7405298;19;19923;-83
2023/04/28 09:31:02;;;;;;;8.77;4.75;;;9.30;99.90;;;;;;7406067;19;19923;-77
2023/04/28 09:33:32;;;;;;;9.07;5.25;;;9.20;99.90;;;;;;7401189;19;19922;-83
2023/04/28 09:36:01;;;;;;;11.82;6.18;;;9.30;99.90;;;;;;7405784;19;19923;-82
2023/04/28 09:38:31;;;;;;;10.00;5.45;;;9.50;99.90;;;;;;7404544;19;20352;-82
2023/04/28 09:41:01;;;;;;;9.02;5.43;;;9.40;99.90;;;;;;7406816;19;19978;-81
2023/04/28 09:43:34;;;;;;;8.63;5.00;;;9.20;99.90;;;;;;7404580;19;20259;-81
2023/04/28 09:46:04;;;;;;;12.45;5.82;;;9.50;99.90;;;;;;7405939;19;19914;-81
2023/04/28 09:48:35;;;;;;;10.30;5.80;;;9.40;99.90;;;;;;7403706;19;19921;-79
2023/04/28 09:51:05;;;;;;;7.70;5.38;;;9.40;99.90;;;;;;7405344;19;20621;-81
2023/04/28 09:53:34;;;;;;;8.50;5.05;;;9.70;99.90;;;;;;7395966;19;19937;-80
2023/04/28 09:56:05;;;;;;;10.13;5.45;;;9.50;99.90;;;;;;7404745;19;20377;-78
2023/04/28 09:58:41;;;;;;;10.05;5.90;;;9.70;99.90;;;;;;7404748;19;19919;-77
2023/04/28 10:01:12;;;;;;;9.30;5.70;;;9.70;99.90;;;;;;7400561;19;19920;-75
2023/04/28 10:03:45;;;;;;;8.98;5.38;;;9.90;99.90;;;;;;7401892;19;19918;-75
2023/04/28 10:06:14;;;;;;;8.95;5.40;;;9.90;99.90;;;;;;7404522;19;19923;-74
2023/04/28 10:08:44;;;;;;;8.55;5.13;;;10.00;99.90;;;;;;7401380;19;20285;-74
2023/04/28 10:11:15;;;;;;;10.07;5.13;;;10.10;99.90;;;;;;7401731;19;19946;-75
2023/04/28 10:13:47;;;;;;;7.90;5.22;;;10.30;99.90;;;;;;7399977;19;19922;-75
2023/04/28 10:16:17;;;;;;;8.38;5.45;;;10.10;99.90;;;;;;7401371;19;19915;-75
2023/04/28 10:18:47;;;;;;;8.85;5.28;;;10.40;99.90;;;;;;7403453;19;19922;-75
2023/04/28 10:21:21;;;;;;;8.40;6.25;;;10.60;99.90;;;;;;7401445;19;19919;-75
2023/04/28 10:24:05;;;;;;;9.20;5.60;;;10.80;99.90;;;;;;7400915;19;19933;-76
2023/04/28 10:27:05;;;;;;;9.30;5.93;;;11.30;99.90;;;;;;7401530;19;19918;-76
2023/04/28 10:29:37;;;;;;;;;;;11.40;99.90;;;;;;7403529;19;19925;-75
2023/04/28 10:32:24;;;;;;;11.57;5.95;;;11.50;99.90;;;;;;7405164;19;19932;-75
2023/04/28 10:34:54;;;;;;;8.48;5.65;;;11.80;99.90;;;;;;7404043;19;19922;-76
2023/04/28 10:37:44;;;;;;;7.53;5.20;;;11.90;99.90;;;;;;7401169;19;19914;-76
2023/04/28 10:40:35;;;;;;;7.57;5.30;;;12.30;99.90;;;;;;7399219;19;20720;-76
2023/04/28 10:43:05;;;;;;;8.30;5.47;;;12.30;99.90;;;;;;7402779;19;19919;-75
2023/04/28 10:46:05;;;;;;;9.55;5.32;;;12.30;99.90;;;;;;7399693;19;19931;-77
2023/04/28 10:49:07;;;;;;;9.35;5.40;;;12.30;99.90;;;;;;7401343;19;19926;-77
2023/04/28 10:51:36;;;;;;;9.13;5.32;;;12.30;99.90;;;;;;7400593;19;20344;-76
2023/04/28 10:54:19;;;;;;;10.80;6.30;;;12.40;99.90;;;;;;7401925;19;19933;-76
2023/04/28 10:57:20;;;;;;;8.27;5.60;;;12.40;99.90;;;;;;7401505;19;19919;-76
2023/04/28 10:59:49;;;;;;;9.32;6.35;;;12.40;99.90;;;;;;7403472;19;19945;-76
2023/04/28 11:02:45;;;;;;;8.73;5.75;;;12.50;99.90;;;;;;7403518;19;20263;-76
2023/04/28 11:05:26;;;;;;;10.27;5.57;;;12.50;99.90;;;;;;7400063;19;20292;-76
2023/04/28 11:08:34;;;;;;;10.95;5.43;;;12.30;99.90;;;;;;7400140;19;19918;-76
2023/04/28 11:11:25;;;;;;;8.45;5.93;;;12.20;99.90;;;;;;7404220;19;19914;-76
2023/04/28 11:13:56;;;;;;;11.25;6.13;;;12.10;99.90;;;;;;7398716;19;20312;-76
2023/04/28 11:16:26;;;;;;;11.00;6.85;;;12.20;99.90;;;;;;7400955;19;19975;-75
2023/04/28 11:19:04;;;;;;;12.75;6.10;;;12.00;99.90;;;;;;7400033;19;19927;-77
2023/04/28 11:21:34;;;;;;;7.28;5.38;;;11.80;99.90;;;;;;7399686;19;19914;-76
2023/04/28 11:24:12;;;;;;;9.68;6.07;;;11.80;99.90;;;;;;7399076;19;19919;-76
2023/04/28 11:26:41;;;;;;;;;;;11.70;99.90;;;;;;7403888;19;19910;-75
2023/04/28 11:29:11;;;;;;;7.78;5.80;;;11.60;99.90;;;;;;7399326;19;19922;-76
2023/04/28 11:31:41;;;;;;;14.32;6.55;;;11.70;99.90;;;;;;7402746;19;19919;-76
2023/04/28 11:34:14;;;;;;;9.77;5.93;;;11.80;99.90;;;;;;7398588;19;19926;-76
2023/04/28 11:36:44;;;;;;;9.40;6.53;;;11.70;99.90;;;;;;7400285;19;19950;-76
2023/04/28 11:39:14;;;;;;;11.60;6.53;;;11.70;99.90;;;;;;7397634;19;19918;-77
2023/04/28 11:41:45;;;;;;;7.65;5.85;;;11.70;99.90;;;;;;7399733;19;19914;-76
2023/04/28 11:44:15;;;;;;;8.45;5.68;;;11.60;99.90;;;;;;7405031;19;19921;-77
2023/04/28 11:46:50;;;;;;;10.82;6.60;;;11.60;99.90;;;;;;7403069;19;19922;-76
2023/04/28 11:49:23;;;;;;;9.55;6.70;;;13.10;99.90;;;;;;7399990;19;19919;-76
2023/04/28 11:51:53;;;;;;;10.18;7.05;;;11.70;99.90;;;;;;7399350;19;19919;-76
2023/04/28 11:54:23;;;;;;;11.00;6.95;;;11.50;99.90;;;;;;7399000;19;19921;-76
2023/04/28 11:56:53;;;;;;;11.80;6.82;;;11.50;99.90;;;;;;7395803;19;19914;-75
2023/04/28 11:59:26;;;;;;;9.00;6.72;;;11.30;99.90;;;;;;7399499;19;19919;-76
2023/04/28 12:01:58;;;;;;;9.10;6.68;;;11.30;99.90;;;;;;7403367;19;19919;-76
2023/04/28 12:04:35;;;;;;;13.18;7.38;;;11.30;99.90;;;;;;7398389;19;19918;-77
2023/04/28 12:07:06;;;;;;;10.80;7.53;;;11.40;99.90;;;;;;7398518;19;19922;-76
2023/04/28 12:09:36;;;;;;;10.60;6.70;;;11.40;99.90;;;;;;7399555;19;19925;-77
2023/04/28 12:12:07;;;;;;;12.07;7.55;;;11.50;99.90;;;;;;7398280;19;19958;-77
2023/04/28 12:14:58;;;;;;;13.20;7.35;;;11.40;99.90;;;;;;7396539;19;20461;-77
2023/04/28 12:17:28;;;;;;;10.38;7.18;;;11.60;99.90;;;;;;7401882;19;19989;-77
2023/04/28 12:20:01;;;;;;;8.75;6.18;;;11.50;99.90;;;;;;7397990;19;19927;-78
2023/04/28 12:22:30;;;;;;;10.52;7.13;;;11.50;99.90;;;;;;7397898;19;19914;-77
2023/04/28 12:25:09;;;;;;;11.02;7.20;;;11.50;99.90;;;;;;7397853;19;19938;-76
2023/04/28 12:27:40;;;;;;;17.13;7.13;;;11.60;99.90;;;;;;7397176;19;19938;-76
2023/04/28 12:30:27;;;;;;;7.57;5.80;;;11.40;99.90;;;;;;7397753;19;19917;-77
2023/04/28 12:32:57;;;;;;;10.45;6.70;;;11.30;99.90;;;;;;7398102;19;19922;-77
2023/04/28 12:35:29;;;;;;;10.70;6.40;;;11.30;99.90;;;;;;7400446;19;20542;-77
2023/04/28 12:37:59;;;;;;;10.88;7.05;;;11.50;99.90;;;;;;7397350;19;19918;-77
2023/04/28 12:40:28;;;;;;;11.68;6.70;;;11.50;99.90;;;;;;7396940;19;19958;-77
2023/04/28 12:42:57;;;;;;;9.82;7.30;;;11.40;99.90;;;;;;7397703;19;19939;-77
2023/04/28 12:45:26;;;;;;;10.15;7.13;;;11.50;99.90;;;;;;7397243;19;19925;-77
2023/04/28 12:47:55;;;;;;;7.75;6.57;;;11.60;99.90;;;;;;7397383;19;19933;-77
2023/04/28 12:50:25;;;;;;;10.82;6.97;;;11.60;99.90;;;;;;7396523;19;19915;-75
2023/04/28 12:52:57;;;;;;;12.30;7.65;;;11.70;99.90;;;;;;7400448;19;19990;-75
2023/04/28 12:55:26;;;;;;;14.48;7.38;;;11.50;99.90;;;;;;7395550;19;19940;-75
2023/04/28 12:57:56;;;;;;;11.10;7.28;;;11.50;99.90;;;;;;7396433;19;19915;-75
2023/04/28 13:00:25;;;;;;;12.90;8.10;;;11.40;99.90;;;;;;7395679;19;19926;-78
2023/04/28 13:02:54;;;;;;;10.93;7.25;;;11.40;99.90;;;;;;7399349;19;19919;-77
2023/04/28 13:05:24;;;;;;;10.73;7.45;;;11.50;99.90;;;;;;7396492;19;19982;-75
2023/04/28 13:07:53;;;;;;;12.38;7.28;;;11.50;99.90;;;;;;7400183;19;19957;-76
2023/04/28 13:10:25;;;;;;;9.77;6.20;;;11.60;99.90;;;;;;7403046;19;19914;-75